sensor_id;sensor_type;location;lat;lon;timestamp;P1;durP1;ratioP1;P2;durP2;ratioP2
3843;SDS011;1937;51.444;6.484;2023-04-03T00:01:41;14.73;;;6.57;;
3843;SDS011;1937;51.444;6.484;2023-04-03T00:04:07;11.43;;;7.23;;
3843;SDS011;1937;51.444;6.484;2023-04-03T00:06:34;9.87;;;7.27;;
3843;SDS011;1937;51.444;6.484;2023-04-03T00:09:01;12.67;;;7.50;;
3843;SDS011;1937;51.444;6.484;2023-04-03T00:11:28;15.07;;;7.53;;
3843;SDS011;1937;51.444;6.484;2023-04-03T00:13:54;7.60;;;6.20;;
3843;SDS011;1937;51.444;6.484;2023-04-03T00:16:21;12.87;;;8.00;;
3843;SDS011;1937;51.444;6.484;2023-04-03T00:18:49;11.80;;;8.10;;
3843;SDS011;1937;51.444;6.484;2023-04-03T00:21:16;9.17;;;7.27;;
3843;SDS011;1937;51.444;6.484;2023-04-03T00:23:43;13.43;;;7.80;;
3843;SDS011;1937;51.444;6.484;2023-04-03T00:26:10;12.03;;;7.87;;
3843;SDS011;1937;51.444;6.484;2023-04-03T00:28:37;8.40;;;7.00;;
3843;SDS011;1937;51.444;6.484;2023-04-03T00:31:05;10.70;;;6.07;;
3843;SDS011;1937;51.444;6.484;2023-04-03T00:33:35;10.03;;;7.43;;
3843;SDS011;1937;51.444;6.484;2023-04-03T00:36:06;9.63;;;7.10;;
3843;SDS011;1937;51.444;6.484;2023-04-03T00:38:33;10.90;;;6.50;;
3843;SDS011;1937;51.444;6.484;2023-04-03T00:41:00;9.50;;;6.80;;
3843;SDS011;1937;51.444;6.484;2023-04-03T00:43:27;7.20;;;6.10;;
3843;SDS011;1937;51.444;6.484;2023-04-03T00:45:58;14.20;;;8.43;;
3843;SDS011;1937;51.444;6.484;2023-04-03T00:48:26;9.93;;;7.57;;
3843;SDS011;1937;51.444;6.484;2023-04-03T00:50:59;14.17;;;9.33;;
3843;SDS011;1937;51.444;6.484;2023-04-03T00:53:29;11.13;;;8.30;;
3843;SDS011;1937;51.444;6.484;2023-04-03T00:55:59;12.33;;;8.17;;
3843;SDS011;1937;51.444;6.484;2023-04-03T00:58:28;10.57;;;7.47;;
3843;SDS011;1937;51.444;6.484;2023-04-03T01:01:03;19.83;;;7.87;;
3843;SDS011;1937;51.444;6.484;2023-04-03T01:03:32;13.67;;;8.33;;
3843;SDS011;1937;51.444;6.484;2023-04-03T01:06:02;12.47;;;8.40;;
3843;SDS011;1937;51.444;6.484;2023-04-03T01:08:31;7.90;;;6.90;;
3843;SDS011;1937;51.444;6.484;2023-04-03T01:10:58;13.07;;;7.43;;
3843;SDS011;1937;51.444;6.484;2023-04-03T01:13:25;10.47;;;7.10;;
3843;SDS011;1937;51.444;6.484;2023-04-03T01:15:55;9.10;;;6.33;;
3843;SDS011;1937;51.444;6.484;2023-04-03T01:18:22;11.87;;;7.53;;
3843;SDS011;1937;51.444;6.484;2023-04-03T01:23:59;15.33;;;8.53;;
3843;SDS011;1937;51.444;6.484;2023-04-03T01:26:35;14.47;;;9.00;;
3843;SDS011;1937;51.444;6.484;2023-04-03T01:29:02;11.67;;;8.10;;
3843;SDS011;1937;51.444;6.484;2023-04-03T01:31:31;13.57;;;7.50;;
3843;SDS011;1937;51.444;6.484;2023-04-03T01:34:10;11.53;;;7.33;;
3843;SDS011;1937;51.444;6.484;2023-04-03T01:36:41;9.63;;;6.80;;
3843;SDS011;1937;51.444;6.484;2023-04-03T01:39:11;9.50;;;6.27;;
3843;SDS011;1937;51.444;6.484;2023-04-03T01:41:38;9.60;;;7.67;;
3843;SDS011;1937;51.444;6.484;2023-04-03T01:44:05;14.17;;;7.20;;
3843;SDS011;1937;51.444;6.484;2023-04-03T01:46:31;15.17;;;8.10;;
3843;SDS011;1937;51.444;6.484;2023-04-03T01:49:00;17.37;;;7.67;;
3843;SDS011;1937;51.444;6.484;2023-04-03T01:51:26;7.00;;;6.00;;
3843;SDS011;1937;51.444;6.484;2023-04-03T01:53:53;13.13;;;6.87;;
3843;SDS011;1937;51.444;6.484;2023-04-03T01:56:20;8.70;;;7.27;;
3843;SDS011;1937;51.444;6.484;2023-04-03T01:58:46;15.83;;;6.87;;
3843;SDS011;1937;51.444;6.484;2023-04-03T02:01:13;7.70;;;6.87;;
3843;SDS011;1937;51.444;6.484;2023-04-03T02:03:40;10.47;;;5.77;;
3843;SDS011;1937;51.444;6.484;2023-04-03T02:06:08;10.87;;;6.27;;
3843;SDS011;1937;51.444;6.484;2023-04-03T02:08:34;8.93;;;5.03;;
3843;SDS011;1937;51.444;6.484;2023-04-03T02:11:01;12.10;;;6.27;;
3843;SDS011;1937;51.444;6.484;2023-04-03T02:13:27;8.27;;;5.33;;
3843;SDS011;1937;51.444;6.484;2023-04-03T02:15:54;5.50;;;5.00;;
3843;SDS011;1937;51.444;6.484;2023-04-03T02:18:21;9.03;;;5.47;;
3843;SDS011;1937;51.444;6.484;2023-04-03T02:20:48;8.53;;;5.17;;
3843;SDS011;1937;51.444;6.484;2023-04-03T02:23:16;6.77;;;4.30;;
3843;SDS011;1937;51.444;6.484;2023-04-03T02:25:43;8.60;;;4.13;;
3843;SDS011;1937;51.444;6.484;2023-04-03T02:28:10;7.93;;;4.47;;
3843;SDS011;1937;51.444;6.484;2023-04-03T02:30:36;12.90;;;4.90;;
3843;SDS011;1937;51.444;6.484;2023-04-03T02:33:03;12.37;;;4.50;;
3843;SDS011;1937;51.444;6.484;2023-04-03T02:35:30;6.90;;;4.40;;
3843;SDS011;1937;51.444;6.484;2023-04-03T02:37:58;8.73;;;4.10;;
3843;SDS011;1937;51.444;6.484;2023-04-03T02:40:29;6.60;;;4.33;;
3843;SDS011;1937;51.444;6.484;2023-04-03T02:42:58;7.53;;;3.30;;
3843;SDS011;1937;51.444;6.484;2023-04-03T02:45:26;4.20;;;3.63;;
3843;SDS011;1937;51.444;6.484;2023-04-03T02:47:52;5.37;;;3.83;;
3843;SDS011;1937;51.444;6.484;2023-04-03T02:50:19;4.97;;;3.70;;
3843;SDS011;1937;51.444;6.484;2023-04-03T02:52:46;8.07;;;3.80;;
3843;SDS011;1937;51.444;6.484;2023-04-03T02:55:13;3.70;;;3.20;;
3843;SDS011;1937;51.444;6.484;2023-04-03T02:57:43;9.77;;;3.43;;
3843;SDS011;1937;51.444;6.484;2023-04-03T03:00:10;6.13;;;3.57;;
3843;SDS011;1937;51.444;6.484;2023-04-03T03:02:40;15.40;;;3.27;;
3843;SDS011;1937;51.444;6.484;2023-04-03T03:05:07;5.87;;;3.70;;
3843;SDS011;1937;51.444;6.484;2023-04-03T03:07:34;5.03;;;3.20;;
3843;SDS011;1937;51.444;6.484;2023-04-03T03:10:01;4.10;;;2.90;;
3843;SDS011;1937;51.444;6.484;2023-04-03T03:12:28;9.57;;;3.63;;
3843;SDS011;1937;51.444;6.484;2023-04-03T03:14:56;4.83;;;3.43;;
3843;SDS011;1937;51.444;6.484;2023-04-03T03:17:23;4.90;;;3.47;;
3843;SDS011;1937;51.444;6.484;2023-04-03T03:19:49;5.57;;;3.53;;
3843;SDS011;1937;51.444;6.484;2023-04-03T03:22:16;7.87;;;3.30;;
3843;SDS011;1937;51.444;6.484;2023-04-03T03:24:43;6.17;;;3.20;;
3843;SDS011;1937;51.444;6.484;2023-04-03T03:27:09;5.80;;;3.90;;
3843;SDS011;1937;51.444;6.484;2023-04-03T03:29:37;6.40;;;2.93;;
3843;SDS011;1937;51.444;6.484;2023-04-03T03:32:05;6.47;;;3.60;;
3843;SDS011;1937;51.444;6.484;2023-04-03T03:34:32;5.03;;;2.87;;
3843;SDS011;1937;51.444;6.484;2023-04-03T03:36:58;9.53;;;4.80;;
3843;SDS011;1937;51.444;6.484;2023-04-03T03:39:29;8.33;;;3.03;;
3843;SDS011;1937;51.444;6.484;2023-04-03T03:41:55;6.23;;;3.70;;
3843;SDS011;1937;51.444;6.484;2023-04-03T03:44:22;6.90;;;2.87;;
3843;SDS011;1937;51.444;6.484;2023-04-03T03:46:49;3.43;;;2.63;;
3843;SDS011;1937;51.444;6.484;2023-04-03T03:49:17;9.23;;;3.93;;
3843;SDS011;1937;51.444;6.484;2023-04-03T03:51:44;4.43;;;2.87;;
3843;SDS011;1937;51.444;6.484;2023-04-03T03:54:12;8.37;;;4.30;;
3843;SDS011;1937;51.444;6.484;2023-04-03T03:56:39;3.90;;;2.80;;
3843;SDS011;1937;51.444;6.484;2023-04-03T03:59:07;4.17;;;2.77;;
3843;SDS011;1937;51.444;6.484;2023-04-03T04:01:34;4.07;;;3.23;;
3843;SDS011;1937;51.444;6.484;2023-04-03T04:04:03;9.20;;;3.03;;
3843;SDS011;1937;51.444;6.484;2023-04-03T04:06:37;4.80;;;2.57;;
3843;SDS011;1937;51.444;6.484;2023-04-03T04:09:04;3.07;;;2.53;;
3843;SDS011;1937;51.444;6.484;2023-04-03T04:11:31;5.10;;;2.53;;
3843;SDS011;1937;51.444;6.484;2023-04-03T04:13:58;3.60;;;2.20;;
3843;SDS011;1937;51.444;6.484;2023-04-03T04:16:24;5.83;;;2.97;;
3843;SDS011;1937;51.444;6.484;2023-04-03T04:18:54;4.20;;;3.10;;
3843;SDS011;1937;51.444;6.484;2023-04-03T04:21:21;5.10;;;3.30;;
3843;SDS011;1937;51.444;6.484;2023-04-03T04:23:52;4.97;;;3.20;;
3843;SDS011;1937;51.444;6.484;2023-04-03T04:26:19;4.90;;;2.70;;
3843;SDS011;1937;51.444;6.484;2023-04-03T04:28:46;8.97;;;3.20;;
3843;SDS011;1937;51.444;6.484;2023-04-03T04:31:13;4.50;;;2.93;;
3843;SDS011;1937;51.444;6.484;2023-04-03T04:33:39;5.03;;;2.83;;
3843;SDS011;1937;51.444;6.484;2023-04-03T04:36:06;4.53;;;2.40;;
3843;SDS011;1937;51.444;6.484;2023-04-03T04:38:33;4.20;;;2.53;;
3843;SDS011;1937;51.444;6.484;2023-04-03T04:41:01;4.40;;;2.43;;
3843;SDS011;1937;51.444;6.484;2023-04-03T04:43:30;2.80;;;2.27;;
3843;SDS011;1937;51.444;6.484;2023-04-03T04:46:01;3.83;;;2.53;;
3843;SDS011;1937;51.444;6.484;2023-04-03T04:48:28;8.00;;;3.07;;
3843;SDS011;1937;51.444;6.484;2023-04-03T04:50:57;4.87;;;2.13;;
3843;SDS011;1937;51.444;6.484;2023-04-03T04:53:24;2.83;;;2.53;;
3843;SDS011;1937;51.444;6.484;2023-04-03T04:55:51;5.63;;;2.57;;
3843;SDS011;1937;51.444;6.484;2023-04-03T04:58:20;4.67;;;2.90;;
3843;SDS011;1937;51.444;6.484;2023-04-03T05:00:47;4.00;;;2.97;;
3843;SDS011;1937;51.444;6.484;2023-04-03T05:03:14;4.60;;;1.97;;
3843;SDS011;1937;51.444;6.484;2023-04-03T05:05:41;6.47;;;2.57;;
3843;SDS011;1937;51.444;6.484;2023-04-03T05:08:07;3.60;;;2.50;;
3843;SDS011;1937;51.444;6.484;2023-04-03T05:10:46;6.83;;;2.23;;
3843;SDS011;1937;51.444;6.484;2023-04-03T05:13:12;4.60;;;2.20;;
3843;SDS011;1937;51.444;6.484;2023-04-03T05:15:41;7.93;;;3.00;;
3843;SDS011;1937;51.444;6.484;2023-04-03T05:18:08;8.47;;;2.63;;
3843;SDS011;1937;51.444;6.484;2023-04-03T05:20:34;4.00;;;2.57;;
3843;SDS011;1937;51.444;6.484;2023-04-03T05:23:02;4.33;;;2.47;;
3843;SDS011;1937;51.444;6.484;2023-04-03T05:25:31;2.37;;;2.00;;
3843;SDS011;1937;51.444;6.484;2023-04-03T05:28:00;2.47;;;2.27;;
3843;SDS011;1937;51.444;6.484;2023-04-03T05:30:26;5.37;;;2.33;;
3843;SDS011;1937;51.444;6.484;2023-04-03T05:32:54;4.13;;;2.33;;
3843;SDS011;1937;51.444;6.484;2023-04-03T05:35:21;4.80;;;3.03;;
3843;SDS011;1937;51.444;6.484;2023-04-03T05:37:55;8.40;;;3.40;;
3843;SDS011;1937;51.444;6.484;2023-04-03T05:40:23;3.93;;;2.43;;
3843;SDS011;1937;51.444;6.484;2023-04-03T05:42:49;6.27;;;2.77;;
3843;SDS011;1937;51.444;6.484;2023-04-03T05:45:16;7.97;;;3.50;;
3843;SDS011;1937;51.444;6.484;2023-04-03T05:47:43;10.13;;;3.10;;
3843;SDS011;1937;51.444;6.484;2023-04-03T05:50:11;4.50;;;2.87;;
3843;SDS011;1937;51.444;6.484;2023-04-03T05:52:39;4.87;;;3.10;;
3843;SDS011;1937;51.444;6.484;2023-04-03T05:55:12;3.70;;;2.97;;
3843;SDS011;1937;51.444;6.484;2023-04-03T05:57:42;4.93;;;2.57;;
3843;SDS011;1937;51.444;6.484;2023-04-03T06:00:12;6.37;;;2.97;;
3843;SDS011;1937;51.444;6.484;2023-04-03T06:02:40;4.27;;;3.50;;
3843;SDS011;1937;51.444;6.484;2023-04-03T06:05:08;5.40;;;3.90;;
3843;SDS011;1937;51.444;6.484;2023-04-03T06:07:39;8.70;;;2.60;;
3843;SDS011;1937;51.444;6.484;2023-04-03T06:10:07;13.23;;;3.93;;
3843;SDS011;1937;51.444;6.484;2023-04-03T06:12:34;3.17;;;2.77;;
3843;SDS011;1937;51.444;6.484;2023-04-03T06:15:01;8.43;;;3.30;;
3843;SDS011;1937;51.444;6.484;2023-04-03T06:17:28;5.77;;;3.10;;
3843;SDS011;1937;51.444;6.484;2023-04-03T06:19:58;15.17;;;2.80;;
3843;SDS011;1937;51.444;6.484;2023-04-03T06:22:24;6.17;;;2.50;;
3843;SDS011;1937;51.444;6.484;2023-04-03T06:24:56;7.97;;;3.30;;
3843;SDS011;1937;51.444;6.484;2023-04-03T06:27:25;4.67;;;2.77;;
3843;SDS011;1937;51.444;6.484;2023-04-03T06:29:52;6.10;;;3.40;;
3843;SDS011;1937;51.444;6.484;2023-04-03T06:32:19;11.03;;;3.93;;
3843;SDS011;1937;51.444;6.484;2023-04-03T06:34:45;8.10;;;3.60;;
3843;SDS011;1937;51.444;6.484;2023-04-03T06:37:14;5.43;;;3.30;;
3843;SDS011;1937;51.444;6.484;2023-04-03T06:39:41;4.40;;;2.50;;
3843;SDS011;1937;51.444;6.484;2023-04-03T06:42:10;3.17;;;2.40;;
3843;SDS011;1937;51.444;6.484;2023-04-03T06:44:36;10.30;;;2.87;;
3843;SDS011;1937;51.444;6.484;2023-04-03T06:47:03;4.50;;;3.07;;
3843;SDS011;1937;51.444;6.484;2023-04-03T06:49:30;4.10;;;3.13;;
3843;SDS011;1937;51.444;6.484;2023-04-03T06:51:57;4.60;;;3.37;;
3843;SDS011;1937;51.444;6.484;2023-04-03T06:54:24;5.70;;;3.27;;
3843;SDS011;1937;51.444;6.484;2023-04-03T06:56:51;11.33;;;3.93;;
3843;SDS011;1937;51.444;6.484;2023-04-03T06:59:19;8.33;;;3.77;;
3843;SDS011;1937;51.444;6.484;2023-04-03T07:01:45;6.30;;;3.20;;
3843;SDS011;1937;51.444;6.484;2023-04-03T07:04:13;4.07;;;3.30;;
3843;SDS011;1937;51.444;6.484;2023-04-03T07:06:40;7.80;;;3.40;;
3843;SDS011;1937;51.444;6.484;2023-04-03T07:09:07;3.50;;;2.80;;
3843;SDS011;1937;51.444;6.484;2023-04-03T07:11:34;5.90;;;3.40;;
3843;SDS011;1937;51.444;6.484;2023-04-03T07:14:01;7.70;;;3.50;;
3843;SDS011;1937;51.444;6.484;2023-04-03T07:16:29;12.50;;;3.60;;
3843;SDS011;1937;51.444;6.484;2023-04-03T07:18:56;4.50;;;3.67;;
3843;SDS011;1937;51.444;6.484;2023-04-03T07:21:23;4.13;;;2.63;;
3843;SDS011;1937;51.444;6.484;2023-04-03T07:23:51;5.80;;;2.67;;
3843;SDS011;1937;51.444;6.484;2023-04-03T07:26:17;10.00;;;3.47;;
3843;SDS011;1937;51.444;6.484;2023-04-03T07:28:45;7.23;;;2.80;;
3843;SDS011;1937;51.444;6.484;2023-04-03T07:31:13;4.20;;;2.90;;
3843;SDS011;1937;51.444;6.484;2023-04-03T07:33:45;10.23;;;3.40;;
3843;SDS011;1937;51.444;6.484;2023-04-03T07:36:14;7.20;;;3.23;;
3843;SDS011;1937;51.444;6.484;2023-04-03T07:38:43;10.83;;;3.70;;
3843;SDS011;1937;51.444;6.484;2023-04-03T07:41:11;9.83;;;3.27;;
3843;SDS011;1937;51.444;6.484;2023-04-03T07:43:40;6.00;;;3.07;;
3843;SDS011;1937;51.444;6.484;2023-04-03T07:46:07;7.63;;;2.67;;
3843;SDS011;1937;51.444;6.484;2023-04-03T07:48:34;6.67;;;3.27;;
3843;SDS011;1937;51.444;6.484;2023-04-03T07:51:03;7.50;;;3.30;;
3843;SDS011;1937;51.444;6.484;2023-04-03T07:53:31;7.57;;;3.00;;
3843;SDS011;1937;51.444;6.484;2023-04-03T07:55:58;5.23;;;2.57;;
3843;SDS011;1937;51.444;6.484;2023-04-03T07:58:27;12.40;;;3.70;;
3843;SDS011;1937;51.444;6.484;2023-04-03T08:00:54;3.57;;;3.23;;
3843;SDS011;1937;51.444;6.484;2023-04-03T08:03:21;6.30;;;3.00;;
3843;SDS011;1937;51.444;6.484;2023-04-03T08:05:48;5.13;;;2.90;;
3843;SDS011;1937;51.444;6.484;2023-04-03T08:08:17;4.40;;;3.30;;
3843;SDS011;1937;51.444;6.484;2023-04-03T08:10:47;7.60;;;2.90;;
3843;SDS011;1937;51.444;6.484;2023-04-03T08:13:15;5.27;;;2.73;;
3843;SDS011;1937;51.444;6.484;2023-04-03T08:15:42;5.80;;;2.50;;
3843;SDS011;1937;51.444;6.484;2023-04-03T08:18:09;6.73;;;2.80;;
3843;SDS011;1937;51.444;6.484;2023-04-03T08:20:37;10.00;;;2.80;;
3843;SDS011;1937;51.444;6.484;2023-04-03T08:23:05;10.27;;;3.50;;
3843;SDS011;1937;51.444;6.484;2023-04-03T08:25:37;5.30;;;2.50;;
3843;SDS011;1937;51.444;6.484;2023-04-03T08:28:05;4.67;;;3.20;;
3843;SDS011;1937;51.444;6.484;2023-04-03T08:30:32;6.03;;;2.60;;
3843;SDS011;1937;51.444;6.484;2023-04-03T08:33:00;6.70;;;3.33;;
3843;SDS011;1937;51.444;6.484;2023-04-03T08:35:27;6.20;;;2.90;;
3843;SDS011;1937;51.444;6.484;2023-04-03T08:37:54;3.10;;;2.17;;
3843;SDS011;1937;51.444;6.484;2023-04-03T08:40:21;5.60;;;2.67;;
3843;SDS011;1937;51.444;6.484;2023-04-03T08:42:53;9.40;;;2.90;;
3843;SDS011;1937;51.444;6.484;2023-04-03T08:45:27;4.30;;;1.93;;
3843;SDS011;1937;51.444;6.484;2023-04-03T08:48:04;5.20;;;2.40;;
3843;SDS011;1937;51.444;6.484;2023-04-03T08:50:33;9.90;;;2.57;;
3843;SDS011;1937;51.444;6.484;2023-04-03T08:53:05;7.53;;;2.20;;
3843;SDS011;1937;51.444;6.484;2023-04-03T08:55:37;2.27;;;1.70;;
3843;SDS011;1937;51.444;6.484;2023-04-03T08:58:11;4.30;;;2.57;;
3843;SDS011;1937;51.444;6.484;2023-04-03T09:00:43;3.23;;;1.90;;
3843;SDS011;1937;51.444;6.484;2023-04-03T09:03:12;6.30;;;2.20;;
3843;SDS011;1937;51.444;6.484;2023-04-03T09:05:41;3.20;;;1.60;;
3843;SDS011;1937;51.444;6.484;2023-04-03T09:08:23;4.03;;;2.07;;
3843;SDS011;1937;51.444;6.484;2023-04-03T09:10:58;3.00;;;2.03;;
3843;SDS011;1937;51.444;6.484;2023-04-03T09:13:32;2.53;;;2.20;;
3843;SDS011;1937;51.444;6.484;2023-04-03T09:16:03;3.93;;;2.13;;
3843;SDS011;1937;51.444;6.484;2023-04-03T09:18:48;3.43;;;2.03;;
3843;SDS011;1937;51.444;6.484;2023-04-03T09:21:25;2.40;;;1.90;;
3843;SDS011;1937;51.444;6.484;2023-04-03T09:23:59;2.10;;;1.90;;
3843;SDS011;1937;51.444;6.484;2023-04-03T09:26:30;3.10;;;1.60;;
3843;SDS011;1937;51.444;6.484;2023-04-03T09:29:05;4.40;;;1.77;;
3843;SDS011;1937;51.444;6.484;2023-04-03T09:31:36;2.10;;;1.80;;
3843;SDS011;1937;51.444;6.484;2023-04-03T09:34:06;1.87;;;1.60;;
3843;SDS011;1937;51.444;6.484;2023-04-03T09:36:42;2.03;;;1.80;;
3843;SDS011;1937;51.444;6.484;2023-04-03T09:39:11;6.43;;;1.83;;
3843;SDS011;1937;51.444;6.484;2023-04-03T09:41:40;3.17;;;1.70;;
3843;SDS011;1937;51.444;6.484;2023-04-03T09:44:21;4.07;;;1.70;;
3843;SDS011;1937;51.444;6.484;2023-04-03T09:46:49;2.43;;;2.10;;
3843;SDS011;1937;51.444;6.484;2023-04-03T09:49:18;3.83;;;1.87;;
3843;SDS011;1937;51.444;6.484;2023-04-03T09:51:47;3.63;;;1.90;;
3843;SDS011;1937;51.444;6.484;2023-04-03T09:54:24;3.37;;;1.70;;
3843;SDS011;1937;51.444;6.484;2023-04-03T09:56:56;2.37;;;1.70;;
3843;SDS011;1937;51.444;6.484;2023-04-03T09:59:29;4.00;;;2.10;;
3843;SDS011;1937;51.444;6.484;2023-04-03T10:01:58;4.10;;;1.80;;
3843;SDS011;1937;51.444;6.484;2023-04-03T10:04:26;4.60;;;1.93;;
3843;SDS011;1937;51.444;6.484;2023-04-03T10:07:04;2.00;;;1.73;;
3843;SDS011;1937;51.444;6.484;2023-04-03T10:09:59;3.03;;;1.80;;
3843;SDS011;1937;51.444;6.484;2023-04-03T10:12:28;2.80;;;1.70;;
3843;SDS011;1937;51.444;6.484;2023-04-03T10:14:59;3.00;;;1.47;;
3843;SDS011;1937;51.444;6.484;2023-04-03T10:17:38;4.43;;;2.10;;
3843;SDS011;1937;51.444;6.484;2023-04-03T10:20:22;2.43;;;1.50;;
3843;SDS011;1937;51.444;6.484;2023-04-03T10:22:56;2.90;;;1.80;;
3843;SDS011;1937;51.444;6.484;2023-04-03T10:25:31;3.43;;;1.57;;
3843;SDS011;1937;51.444;6.484;2023-04-03T10:28:04;1.93;;;1.73;;
3843;SDS011;1937;51.444;6.484;2023-04-03T10:30:40;2.03;;;1.50;;
3843;SDS011;1937;51.444;6.484;2023-04-03T10:36:12;1.80;;;1.70;;
3843;SDS011;1937;51.444;6.484;2023-04-03T10:38:48;3.97;;;1.80;;
3843;SDS011;1937;51.444;6.484;2023-04-03T10:41:22;1.93;;;1.30;;
3843;SDS011;1937;51.444;6.484;2023-04-03T10:43:58;2.43;;;1.70;;
3843;SDS011;1937;51.444;6.484;2023-04-03T10:46:35;1.83;;;1.70;;
3843;SDS011;1937;51.444;6.484;2023-04-03T10:52:09;3.33;;;1.40;;
3843;SDS011;1937;51.444;6.484;2023-04-03T10:54:44;2.90;;;1.50;;
3843;SDS011;1937;51.444;6.484;2023-04-03T10:57:16;1.87;;;1.67;;
3843;SDS011;1937;51.444;6.484;2023-04-03T10:59:44;3.10;;;1.43;;
3843;SDS011;1937;51.444;6.484;2023-04-03T11:02:17;2.70;;;1.80;;
3843;SDS011;1937;51.444;6.484;2023-04-03T11:04:50;2.50;;;1.70;;
3843;SDS011;1937;51.444;6.484;2023-04-03T11:07:23;1.43;;;1.30;;
3843;SDS011;1937;51.444;6.484;2023-04-03T11:09:53;2.40;;;1.20;;
3843;SDS011;1937;51.444;6.484;2023-04-03T11:12:24;2.93;;;1.87;;
3843;SDS011;1937;51.444;6.484;2023-04-03T11:14:56;1.80;;;1.70;;
3843;SDS011;1937;51.444;6.484;2023-04-03T11:17:27;1.80;;;1.50;;
3843;SDS011;1937;51.444;6.484;2023-04-03T11:19:59;1.40;;;1.30;;
3843;SDS011;1937;51.444;6.484;2023-04-03T11:22:32;2.63;;;1.93;;
3843;SDS011;1937;51.444;6.484;2023-04-03T11:25:03;3.03;;;1.80;;
3843;SDS011;1937;51.444;6.484;2023-04-03T11:27:34;10.40;;;1.90;;
3843;SDS011;1937;51.444;6.484;2023-04-03T11:30:07;3.70;;;2.00;;
3843;SDS011;1937;51.444;6.484;2023-04-03T11:35:47;5.23;;;2.00;;
3843;SDS011;1937;51.444;6.484;2023-04-03T11:38:17;2.90;;;2.23;;
3843;SDS011;1937;51.444;6.484;2023-04-03T11:40:49;3.53;;;2.10;;
3843;SDS011;1937;51.444;6.484;2023-04-03T11:43:22;5.23;;;2.10;;
3843;SDS011;1937;51.444;6.484;2023-04-03T11:45:55;2.80;;;1.97;;
3843;SDS011;1937;51.444;6.484;2023-04-03T11:51:39;4.60;;;2.07;;
3843;SDS011;1937;51.444;6.484;2023-04-03T12:06:47;3.80;;;1.93;;
3843;SDS011;1937;51.444;6.484;2023-04-03T12:12:33;13.03;;;1.90;;
3843;SDS011;1937;51.444;6.484;2023-04-03T12:15:12;6.73;;;2.00;;
3843;SDS011;1937;51.444;6.484;2023-04-03T12:17:46;2.33;;;1.90;;
3843;SDS011;1937;51.444;6.484;2023-04-03T12:23:23;5.37;;;2.07;;
3843;SDS011;1937;51.444;6.484;2023-04-03T12:25:59;2.90;;;2.03;;
3843;SDS011;1937;51.444;6.484;2023-04-03T12:28:36;6.70;;;2.43;;
3843;SDS011;1937;51.444;6.484;2023-04-03T12:31:04;4.03;;;1.90;;
3843;SDS011;1937;51.444;6.484;2023-04-03T12:33:37;2.80;;;2.00;;
3843;SDS011;1937;51.444;6.484;2023-04-03T12:36:18;5.40;;;2.43;;
3843;SDS011;1937;51.444;6.484;2023-04-03T12:39:05;3.20;;;2.10;;
3843;SDS011;1937;51.444;6.484;2023-04-03T12:41:45;3.67;;;2.53;;
3843;SDS011;1937;51.444;6.484;2023-04-03T12:47:19;3.17;;;2.43;;
3843;SDS011;1937;51.444;6.484;2023-04-03T12:49:50;3.30;;;1.90;;
3843;SDS011;1937;51.444;6.484;2023-04-03T12:52:21;2.13;;;1.90;;
3843;SDS011;1937;51.444;6.484;2023-04-03T12:54:56;2.97;;;1.93;;
3843;SDS011;1937;51.444;6.484;2023-04-03T12:57:30;3.90;;;2.20;;
3843;SDS011;1937;51.444;6.484;2023-04-03T12:59:57;3.10;;;2.50;;
3843;SDS011;1937;51.444;6.484;2023-04-03T13:02:26;3.40;;;1.60;;
3843;SDS011;1937;51.444;6.484;2023-04-03T13:04:55;2.70;;;1.97;;
3843;SDS011;1937;51.444;6.484;2023-04-03T13:07:26;3.83;;;1.83;;
3843;SDS011;1937;51.444;6.484;2023-04-03T13:10:01;5.30;;;2.33;;
3843;SDS011;1937;51.444;6.484;2023-04-03T13:12:30;3.10;;;2.10;;
3843;SDS011;1937;51.444;6.484;2023-04-03T13:14:57;3.40;;;1.90;;
3843;SDS011;1937;51.444;6.484;2023-04-03T13:17:28;4.67;;;1.90;;
3843;SDS011;1937;51.444;6.484;2023-04-03T13:19:57;3.70;;;1.50;;
3843;SDS011;1937;51.444;6.484;2023-04-03T13:22:38;3.00;;;2.23;;
3843;SDS011;1937;51.444;6.484;2023-04-03T13:25:14;13.00;;;2.70;;
3843;SDS011;1937;51.444;6.484;2023-04-03T13:27:43;5.60;;;2.03;;
3843;SDS011;1937;51.444;6.484;2023-04-03T13:30:26;8.53;;;1.90;;
3843;SDS011;1937;51.444;6.484;2023-04-03T13:32:55;2.87;;;2.07;;
3843;SDS011;1937;51.444;6.484;2023-04-03T13:35:25;2.80;;;1.70;;
3843;SDS011;1937;51.444;6.484;2023-04-03T13:37:59;3.97;;;1.90;;
3843;SDS011;1937;51.444;6.484;2023-04-03T13:40:30;2.00;;;1.50;;
3843;SDS011;1937;51.444;6.484;2023-04-03T13:42:58;1.97;;;1.87;;
3843;SDS011;1937;51.444;6.484;2023-04-03T13:45:29;6.77;;;2.33;;
3843;SDS011;1937;51.444;6.484;2023-04-03T13:48:10;2.87;;;1.90;;
3843;SDS011;1937;51.444;6.484;2023-04-03T13:50:53;4.53;;;2.07;;
3843;SDS011;1937;51.444;6.484;2023-04-03T13:53:24;2.27;;;2.03;;
3843;SDS011;1937;51.444;6.484;2023-04-03T13:55:56;2.80;;;1.67;;
3843;SDS011;1937;51.444;6.484;2023-04-03T13:58:26;2.50;;;2.30;;
3843;SDS011;1937;51.444;6.484;2023-04-03T14:00:55;3.23;;;1.83;;
3843;SDS011;1937;51.444;6.484;2023-04-03T14:03:27;4.67;;;2.10;;
3843;SDS011;1937;51.444;6.484;2023-04-03T14:05:56;2.63;;;1.70;;
3843;SDS011;1937;51.444;6.484;2023-04-03T14:08:25;4.73;;;2.53;;
3843;SDS011;1937;51.444;6.484;2023-04-03T14:10:52;4.13;;;1.90;;
3843;SDS011;1937;51.444;6.484;2023-04-03T14:13:20;2.80;;;2.00;;
3843;SDS011;1937;51.444;6.484;2023-04-03T14:15:47;2.73;;;2.00;;
3843;SDS011;1937;51.444;6.484;2023-04-03T14:18:16;3.30;;;1.70;;
3843;SDS011;1937;51.444;6.484;2023-04-03T14:20:49;4.70;;;2.00;;
3843;SDS011;1937;51.444;6.484;2023-04-03T14:23:17;6.10;;;2.03;;
3843;SDS011;1937;51.444;6.484;2023-04-03T14:25:45;6.10;;;1.90;;
3843;SDS011;1937;51.444;6.484;2023-04-03T14:28:14;2.33;;;2.20;;
3843;SDS011;1937;51.444;6.484;2023-04-03T14:30:44;2.93;;;2.60;;
3843;SDS011;1937;51.444;6.484;2023-04-03T14:33:13;4.17;;;1.97;;
3843;SDS011;1937;51.444;6.484;2023-04-03T14:35:42;2.23;;;1.40;;
3843;SDS011;1937;51.444;6.484;2023-04-03T14:38:12;4.83;;;1.77;;
3843;SDS011;1937;51.444;6.484;2023-04-03T14:40:52;2.50;;;1.80;;
3843;SDS011;1937;51.444;6.484;2023-04-03T14:43:19;2.87;;;1.77;;
3843;SDS011;1937;51.444;6.484;2023-04-03T14:45:49;3.10;;;1.60;;
3843;SDS011;1937;51.444;6.484;2023-04-03T14:48:18;3.67;;;1.53;;
3843;SDS011;1937;51.444;6.484;2023-04-03T14:50:46;2.53;;;2.13;;
3843;SDS011;1937;51.444;6.484;2023-04-03T14:53:14;3.10;;;1.93;;
3843;SDS011;1937;51.444;6.484;2023-04-03T14:55:42;2.93;;;2.73;;
3843;SDS011;1937;51.444;6.484;2023-04-03T14:58:14;3.70;;;2.00;;
3843;SDS011;1937;51.444;6.484;2023-04-03T15:00:41;2.13;;;1.53;;
3843;SDS011;1937;51.444;6.484;2023-04-03T15:03:13;6.40;;;1.80;;
3843;SDS011;1937;51.444;6.484;2023-04-03T15:05:41;5.53;;;1.73;;
3843;SDS011;1937;51.444;6.484;2023-04-03T15:08:13;5.90;;;1.80;;
3843;SDS011;1937;51.444;6.484;2023-04-03T15:10:45;7.20;;;2.50;;
3843;SDS011;1937;51.444;6.484;2023-04-03T15:13:11;3.27;;;1.90;;
3843;SDS011;1937;51.444;6.484;2023-04-03T15:15:40;2.10;;;1.60;;
3843;SDS011;1937;51.444;6.484;2023-04-03T15:18:09;4.23;;;1.80;;
3843;SDS011;1937;51.444;6.484;2023-04-03T15:20:43;5.33;;;2.50;;
3843;SDS011;1937;51.444;6.484;2023-04-03T15:23:10;1.90;;;1.73;;
3843;SDS011;1937;51.444;6.484;2023-04-03T15:25:39;6.53;;;2.27;;
3843;SDS011;1937;51.444;6.484;2023-04-03T15:28:06;2.37;;;1.63;;
3843;SDS011;1937;51.444;6.484;2023-04-03T15:30:36;2.87;;;1.90;;
3843;SDS011;1937;51.444;6.484;2023-04-03T15:33:05;3.20;;;1.80;;
3843;SDS011;1937;51.444;6.484;2023-04-03T15:35:32;1.90;;;1.57;;
3843;SDS011;1937;51.444;6.484;2023-04-03T15:37:58;3.53;;;1.97;;
3843;SDS011;1937;51.444;6.484;2023-04-03T15:40:25;2.30;;;2.10;;
3843;SDS011;1937;51.444;6.484;2023-04-03T15:42:52;3.37;;;1.57;;
3843;SDS011;1937;51.444;6.484;2023-04-03T15:45:19;2.50;;;1.83;;
3843;SDS011;1937;51.444;6.484;2023-04-03T15:47:47;3.70;;;2.60;;
3843;SDS011;1937;51.444;6.484;2023-04-03T15:50:14;2.17;;;1.97;;
3843;SDS011;1937;51.444;6.484;2023-04-03T15:52:41;2.60;;;1.50;;
3843;SDS011;1937;51.444;6.484;2023-04-03T15:55:08;3.40;;;1.87;;
3843;SDS011;1937;51.444;6.484;2023-04-03T15:57:39;2.10;;;1.80;;
3843;SDS011;1937;51.444;6.484;2023-04-03T16:00:06;2.17;;;1.70;;
3843;SDS011;1937;51.444;6.484;2023-04-03T16:02:36;3.20;;;1.80;;
3843;SDS011;1937;51.444;6.484;2023-04-03T16:05:07;6.10;;;2.17;;